createdAt,value
2022-08-26T00:02:01.535Z,53.17
2022-08-26T00:04:31.449Z,53.18
2022-08-26T00:07:00.292Z,53.23
2022-08-26T00:09:29.097Z,53.29
2022-08-26T00:11:57.442Z,53.38
2022-08-26T00:14:31.209Z,53.46
2022-08-26T00:17:00.483Z,53.59
2022-08-26T00:19:29.255Z,53.71
2022-08-26T00:21:57.578Z,53.75
2022-08-26T00:24:26.199Z,53.77
2022-08-26T00:26:54.511Z,53.80
2022-08-26T00:29:22.769Z,54.01
2022-08-26T00:31:51.790Z,53.98
2022-08-26T00:34:20.518Z,54.18
2022-08-26T00:36:52.092Z,54.24
2022-08-26T00:39:21.497Z,54.20
2022-08-26T00:41:50.838Z,54.23
2022-08-26T00:44:19.502Z,54.31
2022-08-26T00:46:52.837Z,54.17
2022-08-26T00:49:35.769Z,54.51
2022-08-26T00:52:09.802Z,54.59
2022-08-26T00:54:46.263Z,54.62
2022-08-26T00:57:18.253Z,54.70
2022-08-26T00:59:50.965Z,54.72
2022-08-26T01:02:21.319Z,54.86
2022-08-26T01:04:55.604Z,54.78
2022-08-26T01:07:26.360Z,54.94
2022-08-26T01:09:56.430Z,54.96
2022-08-26T01:12:27.938Z,55.12
2022-08-26T01:14:56.329Z,55.17
2022-08-26T01:17:25.047Z,55.23
2022-08-26T01:20:00.031Z,55.14
2022-08-26T01:22:38.768Z,55.32
2022-08-26T01:25:07.817Z,55.48
2022-08-26T01:27:36.520Z,55.56
2022-08-26T01:30:07.117Z,55.47
2022-08-26T01:32:36.059Z,55.57
2022-08-26T01:35:09.313Z,55.82
2022-08-26T01:37:40.418Z,56.09
2022-08-26T01:40:18.305Z,56.15
2022-08-26T01:42:48.562Z,56.34
2022-08-26T01:45:22.851Z,56.39
2022-08-26T01:47:56.797Z,56.32
2022-08-26T01:50:30.409Z,56.17
2022-08-26T01:53:06.239Z,55.95
2022-08-26T01:55:36.880Z,55.92
2022-08-26T01:58:16.996Z,56.00
2022-08-26T02:00:46.186Z,56.14
2022-08-26T02:03:17.281Z,55.91
2022-08-26T02:05:51.486Z,56.19
2022-08-26T02:08:25.311Z,56.37
2022-08-26T02:10:55.389Z,56.25
2022-08-26T02:13:26.733Z,56.20
2022-08-26T02:15:57.601Z,56.29
2022-08-26T02:18:27.931Z,56.39
2022-08-26T02:20:57.203Z,56.35
2022-08-26T02:23:26.167Z,56.79
2022-08-26T02:26:00.302Z,56.77
2022-08-26T02:28:35.509Z,56.77
2022-08-26T02:31:04.684Z,56.67
2022-08-26T02:33:33.331Z,56.81
2022-08-26T02:36:05.746Z,56.88
2022-08-26T02:38:37.302Z,57.10
2022-08-26T02:41:09.679Z,56.91
2022-08-26T02:43:38.751Z,57.07
2022-08-26T02:46:07.136Z,56.93
2022-08-26T02:48:35.523Z,57.13
2022-08-26T02:51:04.589Z,56.94
2022-08-26T02:53:35.509Z,57.29
2022-08-26T02:56:07.285Z,57.17
2022-08-26T02:58:36.066Z,57.38
2022-08-26T03:01:05.649Z,57.40
2022-08-26T03:03:34.834Z,57.31
2022-08-26T03:06:03.398Z,57.36
2022-08-26T03:08:31.695Z,57.59
2022-08-26T03:11:01.537Z,57.42
2022-08-26T03:13:30.512Z,57.68
2022-08-26T03:16:01.081Z,57.58
2022-08-26T03:18:29.909Z,57.77
2022-08-26T03:20:59.213Z,57.87
2022-08-26T03:23:27.649Z,57.97
2022-08-26T03:25:56.981Z,57.86
2022-08-26T03:28:27.238Z,58.11
2022-08-26T03:30:56.548Z,58.27
2022-08-26T03:33:26.386Z,58.18
2022-08-26T03:35:55.635Z,58.26
2022-08-26T03:38:25.302Z,58.37
2022-08-26T03:40:55.755Z,58.57
2022-08-26T03:43:26.563Z,58.27
2022-08-26T03:45:54.974Z,58.73
2022-08-26T03:48:23.301Z,58.91
2022-08-26T03:50:51.686Z,58.98
2022-08-26T03:53:20.560Z,58.80
2022-08-26T03:55:51.841Z,58.74
2022-08-26T03:58:20.600Z,58.84
2022-08-26T04:00:49.625Z,58.89
2022-08-26T04:03:39.134Z,58.84
2022-08-26T04:06:08.704Z,58.81
2022-08-26T04:08:38.361Z,58.86
2022-08-26T04:11:07.949Z,58.86
2022-08-26T04:13:38.766Z,59.14
2022-08-26T04:16:07.514Z,59.26
2022-08-26T04:18:42.084Z,59.18
2022-08-26T04:21:15.601Z,59.16
2022-08-26T04:23:47.079Z,59.21
2022-08-26T04:26:19.119Z,59.25
2022-08-26T04:28:47.570Z,59.28
2022-08-26T04:31:19.144Z,59.59
2022-08-26T04:33:49.564Z,59.70
2022-08-26T04:36:20.196Z,59.75
2022-08-26T04:38:50.214Z,59.58
2022-08-26T04:41:20.945Z,59.96
2022-08-26T04:43:50.052Z,59.85
2022-08-26T04:46:23.813Z,59.82
2022-08-26T04:48:54.574Z,59.85
2022-08-26T04:51:27.027Z,59.94
2022-08-26T04:53:57.948Z,60.06
2022-08-26T04:56:27.236Z,60.30
2022-08-26T04:58:56.716Z,60.25
2022-08-26T05:01:25.069Z,60.38
2022-08-26T05:03:54.406Z,60.22
2022-08-26T05:06:22.885Z,60.17
2022-08-26T05:08:51.378Z,60.04
2022-08-26T05:11:21.979Z,60.11
2022-08-26T05:13:50.462Z,60.10
2022-08-26T05:16:18.823Z,60.31
2022-08-26T05:18:47.541Z,60.49
2022-08-26T05:21:21.944Z,60.66
2022-08-26T05:23:51.413Z,61.17
2022-08-26T05:26:23.216Z,61.39
2022-08-26T05:28:54.698Z,61.53
2022-08-26T05:31:26.497Z,61.21
2022-08-26T05:33:56.976Z,60.86
2022-08-26T05:36:28.446Z,60.59
2022-08-26T05:38:57.598Z,60.38
2022-08-26T05:41:36.525Z,60.35
2022-08-26T05:44:09.458Z,60.16
2022-08-26T05:46:39.566Z,60.11
2022-08-26T05:49:12.621Z,60.09
2022-08-26T05:51:45.751Z,60.05
2022-08-26T05:54:14.878Z,59.83
2022-08-26T05:56:51.172Z,59.54
2022-08-26T05:59:24.121Z,59.49
2022-08-26T06:01:54.048Z,59.27
2022-08-26T06:04:24.984Z,59.24
2022-08-26T06:06:55.970Z,58.99
2022-08-26T06:09:26.113Z,58.90
2022-08-26T06:11:55.384Z,58.74
2022-08-26T06:14:25.419Z,58.74
2022-08-26T06:16:55.126Z,58.71
2022-08-26T06:19:23.782Z,58.54
2022-08-26T06:21:54.733Z,58.48
2022-08-26T06:24:42.149Z,58.40
2022-08-26T06:27:13.016Z,58.31
2022-08-26T06:29:42.042Z,58.24
2022-08-26T06:32:10.458Z,58.14
2022-08-26T06:34:39.352Z,58.05
2022-08-26T06:37:08.409Z,57.88
2022-08-26T06:39:41.035Z,57.75
2022-08-26T06:42:10.896Z,57.70
2022-08-26T06:44:40.982Z,57.54
2022-08-26T06:47:09.758Z,57.41
2022-08-26T06:49:38.127Z,57.32
2022-08-26T06:52:08.207Z,57.07
2022-08-26T06:54:40.993Z,57.07
2022-08-26T06:57:10.068Z,56.85
2022-08-26T06:59:38.691Z,56.67
2022-08-26T07:02:08.132Z,56.59
2022-08-26T07:04:36.936Z,56.38
2022-08-26T07:07:05.333Z,56.31
2022-08-26T07:09:34.829Z,56.21
2022-08-26T07:12:06.869Z,56.09
2022-08-26T07:14:35.781Z,55.86
2022-08-26T07:17:04.094Z,55.72
2022-08-26T07:19:32.538Z,55.55
2022-08-26T07:22:04.879Z,55.46
2022-08-26T07:24:35.477Z,55.25
2022-08-26T07:27:07.216Z,55.14
2022-08-26T07:29:39.185Z,54.98
2022-08-26T07:32:09.327Z,54.76
2022-08-26T07:34:38.800Z,54.65
2022-08-26T07:37:08.825Z,54.52
2022-08-26T07:39:37.509Z,54.38
2022-08-26T07:42:13.253Z,54.33
2022-08-26T07:44:44.696Z,54.26
2022-08-26T07:47:25.004Z,54.19
2022-08-26T07:49:56.819Z,54.11
2022-08-26T07:52:27.387Z,54.00
2022-08-26T07:54:58.535Z,53.90
2022-08-26T07:57:28.310Z,53.81
2022-08-26T07:59:57.349Z,53.66
2022-08-26T08:02:27.957Z,53.58
2022-08-26T08:04:57.494Z,53.31
2022-08-26T08:07:38.746Z,53.20
2022-08-26T08:10:16.626Z,53.02
2022-08-26T08:12:45.492Z,52.94
2022-08-26T08:15:14.942Z,52.71
2022-08-26T08:17:45.862Z,52.58
2022-08-26T08:20:14.820Z,52.45
2022-08-26T08:22:44.115Z,52.40
2022-08-26T08:25:13.283Z,52.17
2022-08-26T08:27:44.492Z,51.87
2022-08-26T08:30:15.504Z,51.69
2022-08-26T08:32:52.280Z,51.51
2022-08-26T08:35:25.265Z,51.34
2022-08-26T08:37:54.912Z,51.21
2022-08-26T08:40:26.515Z,51.16
2022-08-26T08:42:59.358Z,51.30
2022-08-26T08:45:37.104Z,51.47
2022-08-26T08:48:12.664Z,51.55
2022-08-26T08:50:45.295Z,51.36
2022-08-26T08:53:18.537Z,50.77
2022-08-26T08:56:00.227Z,50.77
2022-08-26T08:58:42.709Z,50.42
2022-08-26T09:01:20.413Z,50.17
2022-08-26T09:03:55.361Z,49.78
2022-08-26T09:06:24.968Z,49.43
2022-08-26T09:08:57.042Z,49.26
2022-08-26T09:11:25.360Z,48.90
2022-08-26T09:13:55.507Z,48.25
2022-08-26T09:16:33.021Z,48.22
2022-08-26T09:19:05.691Z,47.95
2022-08-26T09:21:34.354Z,47.89
2022-08-26T09:24:02.952Z,47.74
2022-08-26T09:26:44.797Z,47.30
2022-08-26T09:29:22.841Z,46.74
2022-08-26T09:31:52.359Z,46.47
2022-08-26T09:34:23.257Z,46.27
2022-08-26T09:36:53.197Z,46.11
2022-08-26T09:39:37.556Z,45.79
2022-08-26T09:42:12.709Z,45.49
2022-08-26T09:44:57.764Z,45.51
2022-08-26T09:47:31.542Z,45.23
2022-08-26T09:50:09.893Z,45.00
2022-08-26T09:52:42.589Z,44.86
2022-08-26T09:55:21.017Z,44.74
2022-08-26T09:57:51.450Z,44.55
2022-08-26T10:00:29.868Z,44.33
2022-08-26T10:03:00.191Z,44.30
2022-08-26T10:05:34.683Z,44.07
2022-08-26T10:08:19.962Z,43.97
2022-08-26T10:10:53.408Z,43.90
2022-08-26T10:13:29.537Z,43.73
2022-08-26T10:16:10.716Z,43.77
2022-08-26T10:18:44.710Z,43.57
2022-08-26T10:21:18.177Z,43.50
2022-08-26T10:23:51.691Z,43.68
2022-08-26T10:26:25.296Z,43.70
2022-08-26T10:29:03.073Z,43.62
2022-08-26T10:31:40.667Z,43.59
2022-08-26T10:34:12.524Z,43.60
2022-08-26T10:37:14.383Z,43.56
2022-08-26T10:39:57.159Z,43.39
2022-08-26T10:42:34.732Z,43.42
2022-08-26T10:45:11.908Z,43.32
2022-08-26T10:47:51.912Z,43.05
2022-08-26T10:50:24.695Z,42.76
2022-08-26T10:53:00.210Z,42.63
2022-08-26T10:55:35.589Z,42.74
2022-08-26T10:58:26.326Z,42.67
2022-08-26T11:01:27.720Z,42.41
2022-08-26T11:04:04.473Z,42.27
2022-08-26T11:06:33.201Z,42.27
2022-08-26T11:09:08.067Z,41.95
2022-08-26T11:11:50.605Z,41.47
2022-08-26T11:14:34.233Z,41.51
2022-08-26T11:17:34.890Z,41.34
2022-08-26T11:20:09.150Z,41.12
2022-08-26T11:22:48.078Z,40.75
2022-08-26T11:25:18.214Z,40.73
2022-08-26T11:27:56.925Z,40.74
2022-08-26T11:30:57.007Z,40.67
2022-08-26T11:33:57.568Z,40.05
2022-08-26T11:36:42.981Z,39.50
2022-08-26T11:39:19.778Z,39.36
2022-08-26T11:41:52.627Z,39.31
2022-08-26T11:44:26.476Z,39.28
2022-08-26T11:46:57.473Z,39.42
2022-08-26T11:49:27.694Z,39.28
2022-08-26T11:52:10.713Z,38.96
2022-08-26T11:54:39.655Z,38.84
2022-08-26T11:57:13.404Z,38.89
2022-08-26T11:59:42.945Z,38.99
2022-08-26T12:02:16.772Z,38.69
2022-08-26T12:04:50.739Z,38.27
2022-08-26T12:07:24.396Z,38.24
2022-08-26T12:09:56.665Z,37.79
2022-08-26T12:12:34.525Z,37.58
2022-08-26T12:15:21.732Z,37.22
2022-08-26T12:17:54.511Z,37.13
2022-08-26T12:20:45.447Z,37.10
2022-08-26T12:23:26.316Z,37.08
2022-08-26T12:26:07.217Z,37.29
2022-08-26T12:28:43.628Z,37.34
2022-08-26T12:31:19.436Z,37.46
2022-08-26T12:33:49.120Z,37.45
2022-08-26T12:36:22.320Z,37.51
2022-08-26T12:38:50.767Z,37.59
2022-08-26T12:41:42.405Z,37.77
2022-08-26T12:44:34.641Z,37.64
2022-08-26T12:47:08.751Z,37.65
2022-08-26T12:49:39.282Z,37.60
2022-08-26T12:52:29.588Z,37.48
2022-08-26T12:55:00.822Z,37.56
2022-08-26T12:57:32.647Z,37.32
2022-08-26T13:00:30.343Z,37.18
2022-08-26T13:03:01.281Z,37.14
2022-08-26T13:05:33.012Z,37.12
2022-08-26T13:08:13.430Z,37.05
2022-08-26T13:10:44.845Z,36.97
2022-08-26T13:13:14.680Z,36.84
2022-08-26T13:15:44.121Z,36.81
2022-08-26T13:18:12.466Z,36.73
2022-08-26T13:20:44.288Z,36.54
2022-08-26T13:23:13.058Z,36.60
2022-08-26T13:25:42.265Z,36.57
2022-08-26T13:28:10.718Z,36.49
2022-08-26T13:30:40.975Z,36.29
2022-08-26T13:33:13.744Z,36.23
2022-08-26T13:35:43.465Z,36.33
2022-08-26T13:38:14.480Z,36.32
2022-08-26T13:40:59.488Z,36.25
2022-08-26T13:43:28.633Z,36.19
2022-08-26T13:45:57.011Z,36.01
2022-08-26T13:48:25.750Z,36.06
2022-08-26T13:50:54.255Z,35.89
2022-08-26T13:53:23.086Z,35.82
2022-08-26T13:55:51.644Z,35.77
2022-08-26T13:58:20.181Z,35.73
2022-08-26T14:00:49.006Z,35.62
2022-08-26T14:03:17.877Z,35.75
2022-08-26T14:05:46.321Z,35.67
2022-08-26T14:08:14.698Z,35.68
2022-08-26T14:10:44.638Z,35.82
2022-08-26T14:13:13.879Z,35.96
2022-08-26T14:15:42.736Z,35.85
2022-08-26T14:18:15.544Z,35.94
2022-08-26T14:20:49.239Z,35.96
2022-08-26T14:23:18.651Z,36.01
2022-08-26T14:25:47.029Z,36.02
2022-08-26T14:28:15.371Z,36.07
2022-08-26T14:30:47.326Z,35.97
2022-08-26T14:33:16.199Z,35.85
2022-08-26T14:35:48.814Z,35.88
2022-08-26T14:38:18.043Z,35.78
2022-08-26T14:40:46.367Z,35.68
2022-08-26T14:43:15.519Z,35.65
2022-08-26T14:45:45.187Z,35.48
2022-08-26T14:48:13.656Z,35.55
2022-08-26T14:50:42.291Z,35.53
2022-08-26T14:53:29.435Z,35.49
2022-08-26T14:55:58.817Z,35.53
2022-08-26T14:58:32.920Z,35.44
2022-08-26T15:01:04.277Z,35.40
2022-08-26T15:03:33.001Z,35.51
2022-08-26T15:06:01.371Z,35.47
2022-08-26T15:08:31.486Z,35.53
2022-08-26T15:11:00.251Z,35.51
2022-08-26T15:13:28.638Z,35.42
2022-08-26T15:15:57.010Z,35.38
2022-08-26T15:18:25.961Z,35.40
2022-08-26T15:20:54.403Z,35.42
2022-08-26T15:23:22.760Z,35.23
2022-08-26T15:25:51.140Z,35.35
2022-08-26T15:28:19.453Z,35.28
2022-08-26T15:30:50.986Z,35.27
2022-08-26T15:33:20.855Z,35.23
2022-08-26T15:35:49.140Z,35.08
2022-08-26T15:38:17.858Z,35.32
2022-08-26T15:40:46.858Z,35.23
2022-08-26T15:43:28.146Z,35.28
2022-08-26T15:45:58.161Z,35.23
2022-08-26T15:48:27.880Z,35.21
2022-08-26T15:51:02.328Z,35.31
2022-08-26T15:53:33.769Z,35.34
2022-08-26T15:56:02.840Z,35.29
2022-08-26T15:58:31.743Z,35.34
2022-08-26T16:01:00.847Z,35.22
2022-08-26T16:03:29.870Z,35.32
2022-08-26T16:05:58.605Z,35.25
2022-08-26T16:08:27.050Z,35.23
2022-08-26T16:11:03.513Z,35.20
2022-08-26T16:13:39.586Z,35.25
2022-08-26T16:16:09.621Z,35.37
2022-08-26T16:18:38.625Z,35.11
2022-08-26T16:21:13.328Z,35.22
2022-08-26T16:23:45.243Z,35.27
2022-08-26T16:26:26.141Z,35.29
2022-08-26T16:28:54.909Z,35.25
2022-08-26T16:31:23.579Z,35.24
2022-08-26T16:33:52.291Z,35.35
2022-08-26T16:36:20.731Z,35.30
2022-08-26T16:38:54.236Z,35.45
2022-08-26T16:41:23.677Z,35.47
2022-08-26T16:43:52.120Z,35.58
2022-08-26T16:46:23.202Z,35.69
2022-08-26T16:48:52.147Z,35.65
2022-08-26T16:51:23.254Z,35.71
2022-08-26T16:53:53.423Z,35.74
2022-08-26T16:56:24.268Z,35.79
2022-08-26T16:59:02.717Z,35.85
2022-08-26T17:01:31.532Z,35.96
2022-08-26T17:04:00.146Z,36.01
2022-08-26T17:06:29.494Z,36.02
2022-08-26T17:08:58.052Z,36.19
2022-08-26T17:11:26.865Z,36.27
2022-08-26T17:13:55.305Z,36.29
2022-08-26T17:16:26.814Z,36.32
2022-08-26T17:18:56.437Z,36.37
2022-08-26T17:21:25.932Z,36.44
2022-08-26T17:23:54.776Z,36.54
2022-08-26T17:26:23.184Z,36.64
2022-08-26T17:28:51.572Z,36.70
2022-08-26T17:31:21.234Z,36.71
2022-08-26T17:33:53.915Z,36.88
2022-08-26T17:36:27.437Z,36.87
2022-08-26T17:38:58.237Z,36.87
2022-08-26T17:41:27.379Z,36.95
2022-08-26T17:43:56.581Z,37.11
2022-08-26T17:46:25.443Z,37.13
2022-08-26T17:48:54.355Z,37.18
2022-08-26T17:51:23.990Z,37.13
2022-08-26T17:53:53.190Z,37.28
2022-08-26T17:56:25.149Z,37.33
2022-08-26T17:58:55.554Z,37.48
2022-08-26T18:01:26.904Z,37.56
2022-08-26T18:04:00.179Z,37.68
2022-08-26T18:06:30.360Z,37.71
2022-08-26T18:09:00.029Z,37.90
2022-08-26T18:11:29.542Z,38.14
2022-08-26T18:13:58.549Z,38.26
2022-08-26T18:16:27.535Z,38.37
2022-08-26T18:18:55.968Z,38.58
2022-08-26T18:21:27.083Z,38.64
2022-08-26T18:23:56.342Z,38.75
2022-08-26T18:26:27.425Z,38.86
2022-08-26T18:28:56.845Z,39.09
2022-08-26T18:31:26.249Z,39.20
2022-08-26T18:33:55.359Z,39.33
2022-08-26T18:36:26.039Z,39.49
2022-08-26T18:38:55.091Z,39.74
2022-08-26T18:41:25.763Z,39.97
2022-08-26T18:43:54.676Z,40.07
2022-08-26T18:46:25.493Z,40.13
2022-08-26T18:48:56.535Z,40.32
2022-08-26T18:51:32.399Z,40.45
2022-08-26T18:54:02.775Z,40.70
2022-08-26T18:56:32.002Z,40.71
2022-08-26T18:59:01.027Z,40.90
2022-08-26T19:01:31.299Z,41.07
2022-08-26T19:04:02.406Z,41.14
2022-08-26T19:06:34.834Z,41.36
2022-08-26T19:09:04.985Z,41.45
2022-08-26T19:11:37.401Z,41.57
2022-08-26T19:14:13.480Z,41.81
2022-08-26T19:16:44.286Z,41.87
2022-08-26T19:19:13.081Z,42.09
2022-08-26T19:21:44.370Z,42.19
2022-08-26T19:24:16.835Z,42.34
2022-08-26T19:26:47.089Z,42.47
2022-08-26T19:31:50.232Z,42.76
2022-08-26T19:34:20.753Z,42.97
2022-08-26T19:36:52.500Z,43.02
2022-08-26T19:39:21.261Z,43.20
2022-08-26T19:41:49.737Z,43.37
2022-08-26T19:44:35.522Z,43.42
2022-08-26T19:47:06.465Z,43.70
2022-08-26T19:49:35.030Z,43.86
2022-08-26T19:52:05.452Z,43.96
2022-08-26T19:54:34.594Z,44.13
2022-08-26T19:57:03.376Z,44.11
2022-08-26T19:59:32.457Z,44.33
2022-08-26T20:02:01.953Z,44.42
2022-08-26T20:04:31.784Z,44.68
2022-08-26T20:07:01.751Z,44.71
2022-08-26T20:09:31.077Z,44.76
2022-08-26T20:11:59.791Z,44.93
2022-08-26T20:14:29.282Z,45.00
2022-08-26T20:16:57.948Z,45.06
2022-08-26T20:19:44.777Z,45.14
2022-08-26T20:22:13.544Z,45.23
2022-08-26T20:24:44.449Z,45.34
2022-08-26T20:27:13.418Z,45.41
2022-08-26T20:29:43.043Z,45.55
2022-08-26T20:32:11.795Z,45.71
2022-08-26T20:34:40.499Z,45.83
2022-08-26T20:37:09.205Z,45.96
2022-08-26T20:39:37.522Z,46.04
2022-08-26T20:42:06.512Z,46.10
2022-08-26T20:44:54.899Z,46.19
2022-08-26T20:47:23.783Z,46.32
2022-08-26T20:49:54.456Z,46.43
2022-08-26T20:52:23.305Z,46.44
2022-08-26T20:54:51.717Z,46.61
2022-08-26T20:57:21.739Z,46.72
2022-08-26T20:59:50.255Z,46.76
2022-08-26T21:02:18.682Z,46.97
2022-08-26T21:04:47.067Z,46.97
2022-08-26T21:07:15.568Z,47.13
2022-08-26T21:09:46.431Z,47.14
2022-08-26T21:12:14.827Z,47.24
2022-08-26T21:14:47.739Z,47.37
2022-08-26T21:17:18.178Z,47.40
2022-08-26T21:19:46.543Z,47.46
2022-08-26T21:22:15.056Z,47.52
2022-08-26T21:24:43.962Z,47.62
2022-08-26T21:27:12.413Z,47.75
2022-08-26T21:29:46.476Z,47.89
2022-08-26T21:32:17.503Z,48.03
2022-08-26T21:34:46.445Z,47.99
2022-08-26T21:37:16.411Z,48.11
2022-08-26T21:39:45.365Z,48.24
2022-08-26T21:42:14.213Z,48.32
2022-08-26T21:44:44.295Z,48.39
2022-08-26T21:47:15.101Z,48.56
2022-08-26T21:55:17.457Z,48.78
2022-08-26T21:57:45.875Z,48.89
2022-08-26T22:00:18.590Z,48.95
2022-08-26T22:02:49.789Z,49.11
2022-08-26T22:05:18.698Z,49.22
2022-08-26T22:07:47.239Z,49.28
2022-08-26T22:10:15.580Z,49.35
2022-08-26T22:12:44.129Z,49.38
2022-08-26T22:15:13.425Z,49.40
2022-08-26T22:17:42.113Z,49.45
2022-08-26T22:20:16.691Z,49.54
2022-08-26T22:22:45.623Z,49.51
2022-08-26T22:25:14.259Z,49.58
2022-08-26T22:27:43.115Z,49.78
2022-08-26T22:30:13.024Z,49.72
2022-08-26T22:32:43.203Z,49.65
2022-08-26T22:35:28.439Z,49.66
2022-08-26T22:37:58.864Z,49.66
2022-08-26T22:40:27.855Z,49.43
2022-08-26T22:42:58.781Z,49.56
2022-08-26T22:45:31.034Z,49.62
2022-08-26T22:48:01.117Z,49.65
2022-08-26T22:50:29.835Z,49.71
2022-08-26T22:52:58.347Z,49.75
2022-08-26T22:55:26.822Z,49.66
2022-08-26T22:57:55.547Z,49.84
2022-08-26T23:00:31.887Z,49.72
2022-08-26T23:03:02.452Z,49.84
2022-08-26T23:05:31.033Z,49.84
2022-08-26T23:07:59.648Z,50.02
2022-08-26T23:10:28.465Z,50.05
2022-08-26T23:12:56.939Z,50.09
2022-08-26T23:15:25.936Z,50.15
2022-08-26T23:17:58.439Z,50.26
2022-08-26T23:20:28.986Z,50.17
2022-08-26T23:22:58.092Z,50.32
2022-08-26T23:25:28.998Z,50.39
2022-08-26T23:27:58.792Z,50.42
2022-08-26T23:30:29.655Z,50.58
2022-08-26T23:32:58.427Z,50.57
2022-08-26T23:35:28.192Z,50.62
2022-08-26T23:37:58.336Z,50.65
2022-08-26T23:40:31.257Z,50.70
2022-08-26T23:43:02.740Z,50.71
2022-08-26T23:45:32.401Z,50.75
2022-08-26T23:48:00.874Z,50.76
2022-08-26T23:50:45.950Z,50.75
2022-08-26T23:53:18.938Z,50.80
2022-08-26T23:55:48.877Z,50.85
2022-08-26T23:58:19.020Z,50.95
